Weather at El Paso International Airport

Public forecast

Using degrees Fahrenheit for public forecast. Weather courtesy of forecast.io.

Current aviation weather report (METAR) for El Paso International Airport

2024/06/19 07:51 (retrieved 33 minutes ago)

KELP 190751Z 15006KT 10SM CLR 28/M03 A2984 RMK AO2 SLP017 T02781028

Aviation forecast (TAF) for El Paso International Airport

2024/06/19 06:24 (retrieved 2 hours ago)

TAF KELP 190522Z 1906/2006 26007KT P6SM SKC FM191600 11008KT P6SM SKC FM192300 10018G28KT P6SM SCT100 BKN200 FM200300 11023G33KT P6SM SCT090 BKN150